Time;durP1;ratioP1;P1;durP2;ratioP2;P2;SDS_P1;SDS_P2;PMS_P1;PMS_P2;Temp;Humidity;BMP_temperature;BMP_pressure;BME280_temperature;BME280_humidity;BME280_pressure;Samples;Min_cycle;Max_cycle;Signal;HPM_P1;HPM_P2
2024/01/25 00:01:30;;;;;;;6.07;2.25;;;22.80;43.70;;;;;;5094490;28;20284;-57
2024/01/25 00:03:58;;;;;;;6.25;2.35;;;22.80;43.70;;;;;;5093686;28;20261;-54
2024/01/25 00:06:26;;;;;;;6.43;2.47;;;22.80;43.70;;;;;;5094128;28;20562;-56
2024/01/25 00:08:53;;;;;;;4.93;2.13;;;22.80;43.70;;;;;;5094160;28;20226;-56
2024/01/25 00:11:20;;;;;;;4.68;2.10;;;22.80;43.70;;;;;;5093932;28;20190;-52
2024/01/25 00:13:47;;;;;;;5.80;2.55;;;22.80;43.70;;;;;;5094358;28;20271;-55
2024/01/25 00:16:14;;;;;;;7.28;2.22;;;22.80;43.70;;;;;;5094154;28;20190;-58
2024/01/25 00:18:40;;;;;;;6.00;2.30;;;22.80;43.70;;;;;;5093823;28;20309;-55
2024/01/25 00:21:09;;;;;;;4.85;1.75;;;22.90;43.80;;;;;;5094075;28;20213;-56
2024/01/25 00:23:36;;;;;;;3.50;1.83;;;22.90;44.50;;;;;;5093698;28;20218;-53
2024/01/25 00:26:02;;;;;;;4.20;1.95;;;22.90;43.70;;;;;;5093608;28;20194;-59
2024/01/25 00:28:29;;;;;;;2.88;1.45;;;22.90;43.70;;;;;;5093677;28;20320;-56
2024/01/25 00:30:56;;;;;;;4.40;1.90;;;22.90;43.70;;;;;;5093893;28;20214;-59
2024/01/25 00:33:23;;;;;;;4.10;1.80;;;23.00;43.80;;;;;;5093468;28;20305;-57
2024/01/25 00:35:50;;;;;;;4.53;1.90;;;22.90;43.80;;;;;;5093844;28;20286;-55
2024/01/25 00:38:19;;;;;;;4.10;1.63;;;23.00;43.80;;;;;;5093482;28;20669;-59
2024/01/25 00:40:47;;;;;;;3.60;1.63;;;23.00;43.80;;;;;;5093030;28;20678;-57
2024/01/25 00:43:14;;;;;;;4.47;1.50;;;23.00;43.80;;;;;;5093698;28;20210;-58
2024/01/25 00:45:41;;;;;;;3.13;1.48;;;23.00;43.80;;;;;;5093294;28;20734;-53
2024/01/25 00:48:10;;;;;;;3.35;1.42;;;23.00;43.80;;;;;;5092914;28;20229;-56
2024/01/25 00:50:38;;;;;;;3.17;1.60;;;23.10;43.90;;;;;;5093551;28;20265;-59
2024/01/25 00:53:06;;;;;;;3.70;1.70;;;23.10;43.80;;;;;;5093430;28;20296;-56
2024/01/25 00:55:34;;;;;;;2.00;1.13;;;23.10;43.70;;;;;;5092729;28;20186;-57
2024/01/25 00:58:02;;;;;;;3.35;1.80;;;23.10;43.70;;;;;;5093059;28;20581;-59
2024/01/25 01:00:29;;;;;;;3.15;1.45;;;23.10;43.80;;;;;;5093042;28;20289;-58
2024/01/25 01:02:59;;;;;;;4.13;1.83;;;23.00;43.80;;;;;;5092295;28;20677;-57
2024/01/25 01:05:27;;;;;;;4.10;1.70;;;22.90;43.70;;;;;;5093699;28;20200;-59
2024/01/25 01:07:54;;;;;;;3.63;1.60;;;22.90;43.70;;;;;;5092960;28;20301;-57
2024/01/25 01:10:21;;;;;;;3.97;1.60;;;22.90;43.70;;;;;;5092460;28;20622;-57
2024/01/25 01:12:49;;;;;;;3.80;1.75;;;22.90;43.70;;;;;;5090488;28;20190;-55
2024/01/25 01:15:17;;;;;;;2.88;1.33;;;22.80;43.70;;;;;;5085844;28;20214;-56
2024/01/25 01:17:44;;;;;;;3.08;1.40;;;22.90;43.80;;;;;;5084693;28;20190;-54
2024/01/25 01:20:11;;;;;;;3.45;1.60;;;22.80;43.80;;;;;;5091700;28;20196;-57
2024/01/25 01:22:38;;;;;;;3.17;1.35;;;22.80;44.00;;;;;;5092328;28;20269;-56
2024/01/25 01:25:06;;;;;;;6.20;1.60;;;22.80;44.00;;;;;;5092030;28;20276;-55
2024/01/25 01:27:33;;;;;;;3.83;1.60;;;22.80;44.00;;;;;;5092235;28;20273;-58
2024/01/25 01:30:01;;;;;;;4.22;1.55;;;22.80;44.00;;;;;;5092456;28;20668;-53
2024/01/25 01:32:28;;;;;;;5.68;1.90;;;22.80;44.10;;;;;;5092461;28;20273;-56
2024/01/25 01:34:55;;;;;;;3.25;1.48;;;22.80;44.00;;;;;;5092345;28;20702;-58
2024/01/25 01:37:21;;;;;;;4.50;1.58;;;22.80;44.00;;;;;;5092779;28;20608;-55
2024/01/25 01:39:48;;;;;;;3.28;1.67;;;22.80;44.10;;;;;;5087181;28;20313;-55
2024/01/25 01:42:15;;;;;;;4.20;1.60;;;22.90;44.10;;;;;;5091584;28;20735;-57
2024/01/25 01:44:42;;;;;;;4.93;2.03;;;22.90;44.00;;;;;;5081710;28;20300;-56
2024/01/25 01:47:10;;;;;;;4.97;1.77;;;23.00;44.00;;;;;;5091943;28;20194;-57
2024/01/25 01:49:37;;;;;;;3.88;1.70;;;23.00;44.00;;;;;;5091379;28;20686;-58
2024/01/25 01:52:04;;;;;;;5.88;1.75;;;23.00;44.00;;;;;;5092554;28;20293;-58
2024/01/25 01:54:32;;;;;;;4.38;1.58;;;23.00;43.90;;;;;;5081919;28;20305;-56
2024/01/25 01:56:59;;;;;;;5.30;1.73;;;23.00;43.80;;;;;;5071221;28;20183;-58
2024/01/25 01:59:26;;;;;;;3.90;1.85;;;23.10;43.90;;;;;;5072471;28;20297;-56
2024/01/25 02:01:53;;;;;;;4.05;1.60;;;23.10;43.90;;;;;;5071817;28;20660;-57
2024/01/25 02:04:21;;;;;;;5.30;1.67;;;23.10;43.90;;;;;;5071930;28;20237;-58
2024/01/25 02:06:48;;;;;;;6.78;1.80;;;23.10;43.90;;;;;;5072222;28;20195;-57
2024/01/25 02:09:15;;;;;;;4.03;1.63;;;23.10;43.90;;;;;;5071704;28;20320;-56
2024/01/25 02:11:42;;;;;;;3.47;1.60;;;23.10;44.50;;;;;;5072015;28;20191;-56
2024/01/25 02:14:11;;;;;;;5.55;1.80;;;23.00;43.80;;;;;;5073054;28;20301;-58
2024/01/25 02:16:38;;;;;;;5.32;1.92;;;23.00;43.90;;;;;;5075944;28;20694;-56
2024/01/25 02:19:05;;;;;;;4.40;1.70;;;22.90;44.60;;;;;;5076036;28;20219;-55
2024/01/25 02:21:33;;;;;;;6.18;1.85;;;22.90;44.10;;;;;;5075877;28;20218;-55
2024/01/25 02:24:01;;;;;;;5.00;2.33;;;22.90;44.20;;;;;;5075743;28;20305;-56
2024/01/25 02:26:28;;;;;;;3.00;1.73;;;22.90;44.20;;;;;;5075568;28;20187;-59
2024/01/25 02:28:55;;;;;;;4.20;1.90;;;22.90;44.30;;;;;;5075691;28;20683;-57
2024/01/25 02:31:22;;;;;;;4.47;1.70;;;22.80;44.30;;;;;;5075966;28;20286;-56
2024/01/25 02:33:49;;;;;;;5.05;1.70;;;22.80;44.30;;;;;;5075441;28;20246;-58
2024/01/25 02:36:16;;;;;;;5.13;1.95;;;22.80;44.40;;;;;;5075618;28;20516;-57
2024/01/25 02:38:42;;;;;;;6.10;1.67;;;22.80;44.40;;;;;;5076609;28;20305;-57
2024/01/25 02:41:11;;;;;;;5.57;1.60;;;22.80;44.50;;;;;;5091810;28;20259;-56
2024/01/25 02:43:37;;;;;;;6.15;1.70;;;22.80;44.50;;;;;;5090325;28;20294;-58
2024/01/25 02:46:04;;;;;;;4.82;1.60;;;22.80;44.50;;;;;;5091626;28;20272;-58
2024/01/25 02:48:32;;;;;;;5.07;1.73;;;22.80;44.50;;;;;;5092949;28;20574;-57
2024/01/25 02:50:59;;;;;;;5.07;1.77;;;22.80;44.50;;;;;;5095796;28;20278;-59
2024/01/25 02:53:25;;;;;;;5.53;1.80;;;22.80;44.60;;;;;;5092005;28;20218;-59
2024/01/25 02:55:52;;;;;;;4.30;1.67;;;22.90;44.60;;;;;;5093738;28;20191;-55
2024/01/25 02:58:20;;;;;;;4.60;2.03;;;22.90;44.50;;;;;;5094997;28;20304;-56
2024/01/25 03:00:47;;;;;;;3.95;1.92;;;23.00;44.50;;;;;;5095674;28;20190;-54
2024/01/25 03:03:14;;;;;;;4.85;1.88;;;23.00;44.50;;;;;;5095008;28;20242;-55
2024/01/25 03:05:41;;;;;;;3.92;1.50;;;23.00;44.40;;;;;;5095483;28;20739;-55
2024/01/25 03:08:08;;;;;;;5.40;1.65;;;23.00;44.40;;;;;;5095486;28;20218;-57
2024/01/25 03:10:35;;;;;;;5.32;1.63;;;23.00;44.40;;;;;;5095029;28;20221;-59
2024/01/25 03:13:02;;;;;;;3.97;1.50;;;23.10;44.40;;;;;;5095421;28;20186;-54
2024/01/25 03:15:30;;;;;;;6.85;2.25;;;23.00;44.30;;;;;;5095385;28;20186;-57
2024/01/25 03:17:57;;;;;;;6.35;1.92;;;23.10;44.40;;;;;;5094929;28;20196;-56
2024/01/25 03:20:24;;;;;;;6.20;2.28;;;23.10;44.40;;;;;;5094948;28;20233;-57
2024/01/25 03:22:51;;;;;;;4.47;1.70;;;23.10;44.30;;;;;;5095152;28;20186;-55
2024/01/25 03:25:18;;;;;;;7.15;1.83;;;23.10;44.30;;;;;;5094588;28;20282;-54
2024/01/25 03:27:45;;;;;;;4.38;1.70;;;23.00;44.20;;;;;;5094795;28;20201;-58
2024/01/25 03:30:12;;;;;;;4.53;1.90;;;23.00;44.30;;;;;;5094787;28;20387;-53
2024/01/25 03:32:40;;;;;;;6.07;2.20;;;23.00;44.40;;;;;;5094725;28;20192;-59
2024/01/25 03:35:08;;;;;;;6.40;1.95;;;23.00;44.50;;;;;;5094800;28;20304;-57
2024/01/25 03:37:35;;;;;;;7.25;2.13;;;22.90;44.50;;;;;;5094641;28;20276;-54
2024/01/25 03:40:02;;;;;;;6.10;1.95;;;22.90;44.60;;;;;;5087887;28;20224;-55
2024/01/25 03:42:30;;;;;;;5.78;1.92;;;22.90;44.70;;;;;;5094587;28;20209;-58
2024/01/25 03:44:57;;;;;;;5.65;2.05;;;22.90;45.40;;;;;;5084644;28;20220;-56
2024/01/25 03:47:23;;;;;;;5.18;2.00;;;22.80;44.70;;;;;;5094243;28;20200;-56
2024/01/25 03:49:52;;;;;;;6.90;2.03;;;22.90;44.80;;;;;;5094319;28;20313;-56
2024/01/25 03:52:18;;;;;;;6.50;2.05;;;22.80;44.80;;;;;;5094594;28;20271;-57
2024/01/25 03:54:45;;;;;;;4.50;1.70;;;22.80;44.80;;;;;;5081810;28;20225;-56
2024/01/25 03:57:12;;;;;;;5.68;1.92;;;22.80;44.80;;;;;;5072730;28;20234;-56
2024/01/25 03:59:39;;;;;;;10.15;2.10;;;22.80;45.50;;;;;;5074224;28;20254;-58
2024/01/25 04:02:06;;;;;;;6.75;1.70;;;22.80;44.80;;;;;;5073796;28;20197;-54
2024/01/25 04:04:33;;;;;;;5.13;1.83;;;22.80;44.80;;;;;;5074423;28;20582;-58
2024/01/25 04:07:01;;;;;;;4.60;1.77;;;22.90;44.80;;;;;;5073887;28;20201;-57
2024/01/25 04:09:27;;;;;;;4.20;1.83;;;22.90;44.90;;;;;;5073650;28;20237;-58
2024/01/25 04:11:55;;;;;;;6.15;2.03;;;22.90;44.80;;;;;;5074376;28;20285;-59
2024/01/25 04:14:22;;;;;;;4.93;1.90;;;22.90;44.70;;;;;;5074126;28;20648;-59
2024/01/25 04:16:49;;;;;;;5.88;1.92;;;23.00;44.80;;;;;;5073665;28;20186;-59
2024/01/25 04:19:16;;;;;;;6.80;1.92;;;23.00;44.80;;;;;;5073730;28;20763;-59
2024/01/25 04:21:43;;;;;;;6.50;2.00;;;23.00;44.80;;;;;;5073630;28;20660;-54
2024/01/25 04:24:11;;;;;;;7.57;2.08;;;23.00;44.70;;;;;;5073331;28;20245;-57
2024/01/25 04:26:38;;;;;;;4.72;1.80;;;23.10;44.70;;;;;;5073474;28;20640;-54
2024/01/25 04:29:06;;;;;;;7.13;2.08;;;23.00;44.60;;;;;;5073429;28;20313;-58
2024/01/25 04:31:33;;;;;;;5.07;1.90;;;23.10;44.60;;;;;;5073075;28;20209;-57
2024/01/25 04:33:59;;;;;;;5.60;1.70;;;23.10;44.60;;;;;;5073532;28;20625;-57
2024/01/25 04:36:26;;;;;;;4.03;1.65;;;23.10;44.50;;;;;;5072923;28;20270;-58
2024/01/25 04:38:53;;;;;;;5.78;1.80;;;23.10;44.50;;;;;;5071190;28;20725;-54
2024/01/25 04:41:21;;;;;;;4.90;1.60;;;23.10;44.50;;;;;;5090604;28;20281;-55
2024/01/25 04:43:48;;;;;;;4.78;1.70;;;23.00;44.40;;;;;;5092862;28;20230;-57
2024/01/25 04:46:15;;;;;;;4.28;1.60;;;23.00;44.50;;;;;;5083957;28;20668;-57
2024/01/25 04:48:42;;;;;;;7.70;1.60;;;23.00;44.60;;;;;;5093173;28;20582;-59
2024/01/25 04:51:09;;;;;;;4.43;1.55;;;22.90;44.60;;;;;;5092746;28;20224;-57
2024/01/25 04:53:36;;;;;;;2.90;1.40;;;22.90;44.70;;;;;;5092919;28;20589;-56
2024/01/25 04:56:04;;;;;;;5.20;1.70;;;22.90;44.70;;;;;;5076098;28;20301;-57
2024/01/25 04:58:32;;;;;;;5.25;1.73;;;22.80;44.70;;;;;;5072936;28;20253;-56
2024/01/25 05:00:59;;;;;;;5.05;2.10;;;22.90;44.80;;;;;;5072471;28;20226;-58
2024/01/25 05:03:26;;;;;;;5.47;1.50;;;22.80;44.80;;;;;;5072812;28;20245;-59
2024/01/25 05:05:53;;;;;;;4.32;1.75;;;22.80;44.80;;;;;;5073261;28;20719;-56
2024/01/25 05:08:20;;;;;;;4.05;1.50;;;22.80;44.90;;;;;;5072325;28;20776;-58
2024/01/25 05:10:47;;;;;;;4.78;1.83;;;22.80;44.80;;;;;;5072809;28;20237;-56
2024/01/25 05:13:14;;;;;;;5.78;1.75;;;22.80;44.90;;;;;;5072681;28;20720;-55
2024/01/25 05:15:42;;;;;;;4.47;1.60;;;22.80;44.90;;;;;;5072545;28;20187;-58
2024/01/25 05:18:09;;;;;;;3.70;1.85;;;22.80;44.90;;;;;;5072488;28;20199;-55
2024/01/25 05:20:37;;;;;;;5.65;2.00;;;22.80;44.90;;;;;;5071891;28;20290;-53
2024/01/25 05:23:05;;;;;;;5.07;1.70;;;22.80;44.90;;;;;;5071252;28;20248;-54
2024/01/25 05:25:32;;;;;;;3.90;1.83;;;22.80;44.80;;;;;;5072289;28;20191;-57
2024/01/25 05:27:59;;;;;;;4.03;1.60;;;22.90;44.80;;;;;;5072308;28;20205;-58
2024/01/25 05:30:27;;;;;;;5.38;1.80;;;22.90;44.80;;;;;;5072167;28;20301;-57
2024/01/25 05:32:55;;;;;;;5.40;1.67;;;22.90;44.80;;;;;;5072591;28;20191;-58
2024/01/25 05:35:23;;;;;;;4.97;1.63;;;22.90;44.70;;;;;;5072511;28;20290;-58
2024/01/25 05:37:50;;;;;;;5.30;1.92;;;23.00;44.80;;;;;;5071883;28;20198;-57
2024/01/25 05:40:17;;;;;;;7.75;2.38;;;23.00;44.70;;;;;;5079217;28;20301;-58
2024/01/25 05:42:44;;;;;;;5.00;2.00;;;23.00;44.60;;;;;;5092126;28;20204;-57
2024/01/25 05:45:11;;;;;;;4.05;1.50;;;23.00;44.60;;;;;;5081431;28;20456;-58
2024/01/25 05:47:39;;;;;;;4.57;1.70;;;23.00;44.50;;;;;;5092041;28;20186;-55
2024/01/25 05:50:07;;;;;;;4.97;1.83;;;23.00;44.60;;;;;;5092078;28;20329;-56
2024/01/25 05:52:37;;;;;;;3.92;1.70;;;23.00;44.50;;;;;;5091914;28;20187;-55
2024/01/25 05:55:04;;;;;;;4.40;1.52;;;23.00;44.50;;;;;;5084067;28;20222;-57
2024/01/25 05:57:31;;;;;;;6.05;1.73;;;23.00;44.50;;;;;;5070499;28;20278;-57
2024/01/25 05:59:57;;;;;;;4.28;1.67;;;22.90;44.40;;;;;;5072187;28;20309;-58
2024/01/25 06:02:24;;;;;;;4.60;2.00;;;22.90;44.50;;;;;;5071822;28;20233;-56
2024/01/25 06:04:51;;;;;;;3.85;1.60;;;22.90;44.60;;;;;;5072196;28;20306;-55
2024/01/25 06:07:20;;;;;;;6.20;1.67;;;22.90;44.70;;;;;;5072112;28;20285;-57
2024/01/25 06:09:47;;;;;;;5.07;1.77;;;22.80;44.60;;;;;;5071867;28;20234;-52
2024/01/25 06:12:13;;;;;;;5.78;2.17;;;22.80;44.70;;;;;;5072480;28;20618;-57
2024/01/25 06:14:40;;;;;;;3.97;1.50;;;22.80;44.70;;;;;;5071619;28;20646;-56
2024/01/25 06:17:07;;;;;;;6.32;1.80;;;22.80;44.80;;;;;;5072127;28;20380;-58
2024/01/25 06:19:34;;;;;;;5.30;1.80;;;22.80;44.80;;;;;;5071980;28;20214;-58
2024/01/25 06:22:01;;;;;;;5.90;1.70;;;22.80;44.80;;;;;;5071439;28;20622;-57
2024/01/25 06:24:30;;;;;;;5.70;1.52;;;22.80;44.80;;;;;;5072188;28;20218;-57
2024/01/25 06:26:57;;;;;;;5.38;1.90;;;22.80;44.80;;;;;;5072076;28;20187;-58
2024/01/25 06:29:24;;;;;;;5.57;1.67;;;22.80;44.80;;;;;;5071790;28;20215;-58
2024/01/25 06:31:51;;;;;;;5.50;1.67;;;22.80;44.80;;;;;;5072012;28;20214;-58
2024/01/25 06:34:18;;;;;;;7.35;1.60;;;22.80;44.70;;;;;;5071933;28;20297;-58
2024/01/25 06:36:45;;;;;;;5.93;1.60;;;22.80;44.80;;;;;;5071367;28;20286;-56
2024/01/25 06:39:11;;;;;;;4.90;1.85;;;22.90;44.80;;;;;;5071884;28;20229;-58
2024/01/25 06:41:40;;;;;;;3.75;1.65;;;22.90;44.70;;;;;;5087406;28;20190;-55
2024/01/25 06:44:07;;;;;;;5.38;1.75;;;22.90;44.60;;;;;;5088885;28;20245;-57
2024/01/25 06:46:33;;;;;;;6.47;1.48;;;22.90;44.60;;;;;;5084734;28;20662;-58
2024/01/25 06:49:00;;;;;;;5.32;2.15;;;22.90;44.50;;;;;;5091712;28;20216;-54
2024/01/25 06:51:27;;;;;;;6.50;1.90;;;22.90;44.50;;;;;;5091614;28;20703;-58
2024/01/25 06:53:54;;;;;;;3.45;1.52;;;23.00;44.50;;;;;;5091272;28;20708;-57
2024/01/25 06:56:21;;;;;;;6.15;1.70;;;23.00;44.50;;;;;;5072469;28;20688;-58
2024/01/25 06:58:49;;;;;;;5.85;1.50;;;23.00;44.40;;;;;;5071052;28;20214;-59
2024/01/25 07:01:21;;;;;;;4.75;1.83;;;23.00;44.40;;;;;;5074564;28;20190;-58
2024/01/25 07:03:50;;;;;;;5.72;1.65;;;23.00;45.00;;;;;;5074975;28;20319;-58
2024/01/25 07:06:17;;;;;;;5.20;1.75;;;23.00;44.30;;;;;;5075222;28;20202;-57
2024/01/25 07:08:44;;;;;;;4.78;1.75;;;23.00;44.30;;;;;;5074982;28;20647;-59
2024/01/25 07:11:11;;;;;;;5.30;1.70;;;23.00;44.30;;;;;;5074758;28;20771;-57
2024/01/25 07:13:38;;;;;;;7.00;2.03;;;22.90;44.30;;;;;;5074831;28;20226;-59
2024/01/25 07:16:07;;;;;;;6.38;1.73;;;22.90;44.30;;;;;;5075188;28;20191;-56
2024/01/25 07:18:34;;;;;;;4.97;2.00;;;22.90;44.40;;;;;;5075366;28;20298;-54
2024/01/25 07:21:02;;;;;;;5.05;1.58;;;22.80;44.50;;;;;;5074693;28;20290;-56
2024/01/25 07:23:30;;;;;;;4.72;1.30;;;22.80;44.50;;;;;;5074528;28;20225;-58
2024/01/25 07:25:57;;;;;;;3.67;1.40;;;22.80;44.60;;;;;;5075016;28;20282;-58
2024/01/25 07:28:25;;;;;;;6.10;2.00;;;22.80;44.60;;;;;;5074272;28;20664;-56
2024/01/25 07:30:51;;;;;;;3.20;1.50;;;22.80;44.60;;;;;;5074831;28;20221;-58
2024/01/25 07:33:20;;;;;;;6.40;1.60;;;22.80;44.60;;;;;;5074793;28;20293;-58
2024/01/25 07:35:47;;;;;;;5.35;1.63;;;22.80;44.60;;;;;;5070853;28;20522;-59
2024/01/25 07:38:14;;;;;;;5.22;1.70;;;22.70;44.50;;;;;;5077460;28;20248;-56
2024/01/25 07:40:41;;;;;;;4.35;1.63;;;22.80;44.60;;;;;;5077614;28;20196;-57
2024/01/25 07:43:08;;;;;;;3.45;1.48;;;22.80;44.60;;;;;;5092554;28;20198;-54
2024/01/25 07:45:35;;;;;;;4.70;1.65;;;22.80;44.60;;;;;;5084670;28;20738;-58
2024/01/25 07:48:02;;;;;;;4.78;1.50;;;22.80;44.60;;;;;;5093307;28;20222;-58
2024/01/25 07:50:31;;;;;;;6.25;1.77;;;22.80;44.60;;;;;;5091018;28;20702;-58
2024/01/25 07:53:00;;;;;;;8.05;2.15;;;22.80;44.60;;;;;;5085778;28;20202;-57
2024/01/25 07:55:29;;;;;;;11.05;1.70;;;22.90;44.80;;;;;;5076453;28;20743;-56
2024/01/25 07:57:56;;;;;;;6.70;1.73;;;22.90;44.80;;;;;;5080878;28;20210;-56
2024/01/25 08:00:23;;;;;;;6.30;1.98;;;22.90;44.80;;;;;;5085039;28;20215;-56
2024/01/25 08:02:50;;;;;;;7.90;1.70;;;22.90;44.80;;;;;;5082359;28;20214;-57
2024/01/25 08:05:18;;;;;;;5.28;1.63;;;23.00;45.10;;;;;;5083102;28;20666;-58
2024/01/25 08:07:48;;;;;;;5.25;1.65;;;23.00;45.10;;;;;;5080416;28;20204;-55
2024/01/25 08:10:16;;;;;;;5.90;1.83;;;23.10;45.20;;;;;;5089801;28;20263;-54
2024/01/25 08:12:47;;;;;;;5.72;1.88;;;23.10;45.20;;;;;;5057628;28;20191;-56
2024/01/25 08:15:14;;;;;;;4.88;1.90;;;23.10;45.50;;;;;;5075155;28;20225;-57
2024/01/25 08:17:43;;;;;;;4.90;1.73;;;23.10;45.50;;;;;;5080231;28;20244;-56
2024/01/25 08:20:13;;;;;;;5.40;1.75;;;23.10;45.60;;;;;;5080117;28;20218;-56
2024/01/25 08:22:41;;;;;;;6.38;2.00;;;23.10;45.70;;;;;;5076715;28;20198;-56
2024/01/25 08:25:11;;;;;;;6.50;1.70;;;23.10;45.70;;;;;;5070348;28;20270;-56
2024/01/25 08:27:40;;;;;;;7.03;1.75;;;23.10;45.80;;;;;;5082390;28;20222;-57
2024/01/25 08:30:08;;;;;;;5.20;1.67;;;23.00;45.80;;;;;;5073720;28;20304;-56
2024/01/25 08:32:36;;;;;;;7.00;2.00;;;23.00;45.70;;;;;;5077830;28;20202;-57
2024/01/25 08:35:03;;;;;;;9.18;2.00;;;23.00;45.90;;;;;;5091061;28;20220;-56
2024/01/25 08:37:30;;;;;;;5.07;1.80;;;23.00;45.90;;;;;;5074179;28;20289;-56
2024/01/25 08:39:57;;;;;;;6.03;1.95;;;23.00;45.90;;;;;;5081673;28;20318;-54
2024/01/25 08:42:25;;;;;;;5.88;1.52;;;23.00;45.80;;;;;;5070432;28;20212;-56
2024/01/25 08:44:52;;;;;;;5.05;1.70;;;23.10;45.80;;;;;;5059578;28;20219;-56
2024/01/25 08:47:20;;;;;;;3.33;1.35;;;23.10;45.80;;;;;;5074207;28;20218;-56
2024/01/25 08:49:47;;;;;;;5.00;1.83;;;23.10;45.70;;;;;;5078135;28;20317;-56
2024/01/25 08:52:15;;;;;;;6.32;1.60;;;23.10;45.70;;;;;;5082658;28;20244;-56
2024/01/25 08:54:42;;;;;;;6.68;1.80;;;23.10;45.70;;;;;;5074247;28;20556;-56
2024/01/25 08:57:10;;;;;;;5.38;1.60;;;23.10;45.60;;;;;;5085481;28;20694;-54
2024/01/25 08:59:38;;;;;;;3.92;1.75;;;23.10;45.60;;;;;;5079320;28;20225;-58
2024/01/25 09:02:06;;;;;;;5.97;1.80;;;23.20;45.60;;;;;;5061623;28;20466;-55
2024/01/25 09:04:33;;;;;;;5.80;2.00;;;23.20;45.60;;;;;;5075097;28;20781;-55
2024/01/25 09:07:00;;;;;;;7.80;1.67;;;23.20;45.60;;;;;;5079057;28;21098;-56
2024/01/25 09:09:27;;;;;;;9.98;2.10;;;23.30;45.70;;;;;;5077415;28;20226;-57
2024/01/25 09:11:54;;;;;;;6.10;1.77;;;23.30;45.70;;;;;;5069236;28;20210;-54
2024/01/25 09:14:22;;;;;;;5.43;1.50;;;23.40;45.80;;;;;;5079781;28;20222;-59
2024/01/25 09:16:51;;;;;;;8.20;1.80;;;23.40;45.60;;;;;;5071952;28;20195;-54
2024/01/25 09:19:18;;;;;;;8.07;1.75;;;23.40;45.60;;;;;;5076925;28;20277;-53
2024/01/25 09:21:45;;;;;;;10.20;1.60;;;23.40;45.60;;;;;;5034071;28;20716;-54
2024/01/25 09:24:12;;;;;;;5.65;1.70;;;23.40;45.60;;;;;;5070665;28;20190;-55
2024/01/25 09:26:39;;;;;;;4.63;1.65;;;23.50;45.60;;;;;;5081599;28;20213;-55
2024/01/25 09:29:06;;;;;;;3.72;1.38;;;23.50;45.50;;;;;;5072619;28;20277;-55
2024/01/25 09:31:33;;;;;;;5.63;1.35;;;23.50;45.50;;;;;;5075066;28;20623;-57
2024/01/25 09:34:01;;;;;;;6.30;1.40;;;23.60;45.50;;;;;;5074440;28;20255;-53
2024/01/25 09:36:29;;;;;;;3.60;1.10;;;23.60;45.60;;;;;;5080897;28;20297;-54
2024/01/25 09:38:56;;;;;;;4.57;1.20;;;23.60;45.60;;;;;;5078948;28;20602;-54
2024/01/25 09:41:23;;;;;;;3.63;1.42;;;23.60;45.60;;;;;;5078110;28;20219;-54
2024/01/25 09:43:50;;;;;;;3.20;1.38;;;23.60;45.60;;;;;;5079993;28;20198;-54
2024/01/25 09:46:18;;;;;;;3.08;1.30;;;23.60;45.70;;;;;;5079579;28;20273;-54
2024/01/25 09:48:47;;;;;;;5.40;1.17;;;23.70;45.80;;;;;;5080357;28;20186;-54
2024/01/25 09:51:16;;;;;;;2.63;1.00;;;23.70;45.80;;;;;;5077701;28;20233;-54
2024/01/25 09:53:43;;;;;;;7.13;1.40;;;23.70;45.80;;;;;;5082033;28;20218;-54
2024/01/25 09:56:11;;;;;;;2.13;1.02;;;23.70;45.80;;;;;;5081191;28;20222;-56
2024/01/25 09:58:41;;;;;;;2.55;0.90;;;23.70;45.80;;;;;;5074424;28;20187;-55
2024/01/25 10:01:13;;;;;;;3.28;0.93;;;23.70;45.90;;;;;;5078013;28;20226;-56
2024/01/25 10:03:41;;;;;;;3.67;1.15;;;23.70;46.00;;;;;;5078018;28;20225;-55
2024/01/25 10:06:08;;;;;;;4.80;1.08;;;23.70;46.00;;;;;;5079960;28;20741;-58
2024/01/25 10:08:36;;;;;;;3.35;1.25;;;23.70;46.00;;;;;;5079326;28;20189;-57
2024/01/25 10:11:04;;;;;;;4.32;0.85;;;23.70;46.00;;;;;;5076222;28;20223;-59
2024/01/25 10:13:31;;;;;;;3.70;0.88;;;23.70;46.00;;;;;;5049891;28;20277;-57
2024/01/25 10:15:59;;;;;;;6.60;1.10;;;23.70;46.00;;;;;;5072532;28;20256;-57
2024/01/25 10:18:26;;;;;;;2.78;0.85;;;23.80;46.10;;;;;;5069855;28;20652;-57
2024/01/25 10:20:55;;;;;;;4.80;0.98;;;23.70;46.20;;;;;;5077273;28;20238;-56
2024/01/25 10:23:22;;;;;;;2.65;1.17;;;23.70;46.20;;;;;;5075345;28;20186;-56
2024/01/25 10:25:50;;;;;;;2.40;0.90;;;23.70;46.20;;;;;;5077865;28;20222;-59
2024/01/25 10:28:17;;;;;;;1.55;1.00;;;23.70;46.20;;;;;;5084034;28;20194;-55
2024/01/25 10:30:44;;;;;;;3.28;1.10;;;23.80;46.30;;;;;;5084144;28;20586;-56
2024/01/25 10:33:12;;;;;;;5.25;1.02;;;23.80;46.30;;;;;;5085424;28;20584;-54
2024/01/25 10:35:41;;;;;;;5.35;0.88;;;23.80;46.40;;;;;;5080610;28;20217;-56
2024/01/25 10:38:08;;;;;;;1.55;0.80;;;23.70;46.30;;;;;;5073048;28;20219;-55
2024/01/25 10:40:36;;;;;;;1.30;0.85;;;23.80;46.40;;;;;;5086142;28;20296;-55
2024/01/25 10:43:05;;;;;;;3.35;1.13;;;23.70;46.20;;;;;;5085715;28;20612;-54
2024/01/25 10:45:32;;;;;;;1.77;1.00;;;23.70;46.30;;;;;;5089727;28;20222;-56
2024/01/25 10:48:00;;;;;;;2.97;0.80;;;23.70;46.30;;;;;;5075778;28;20282;-55
2024/01/25 10:50:27;;;;;;;4.03;0.90;;;23.70;46.30;;;;;;5091991;28;20210;-57
2024/01/25 10:52:55;;;;;;;1.63;0.75;;;23.70;46.30;;;;;;5083167;28;20253;-58
2024/01/25 10:55:22;;;;;;;3.00;1.10;;;23.80;46.50;;;;;;5092626;28;20293;-57
2024/01/25 10:57:49;;;;;;;3.22;0.88;;;23.80;46.50;;;;;;5079117;28;20197;-54
2024/01/25 11:00:18;;;;;;;3.42;1.00;;;23.90;46.50;;;;;;5085919;28;20799;-54
2024/01/25 11:02:46;;;;;;;1.50;0.90;;;23.90;46.40;;;;;;5090293;28;20225;-55
2024/01/25 11:05:14;;;;;;;5.30;1.10;;;23.90;46.30;;;;;;5078125;28;20681;-56
2024/01/25 11:07:46;;;;;;;2.42;1.00;;;23.90;46.40;;;;;;5083799;28;20232;-57
2024/01/25 11:10:16;;;;;;;3.00;1.00;;;23.80;46.30;;;;;;5091983;28;20265;-57
2024/01/25 11:12:51;;;;;;;7.53;1.17;;;23.80;46.30;;;;;;5082678;28;20237;-60
2024/01/25 11:15:24;;;;;;;5.32;1.10;;;23.80;46.30;;;;;;5088535;28;20292;-60
2024/01/25 11:17:53;;;;;;;10.63;1.20;;;23.80;46.40;;;;;;5081679;28;20207;-55
2024/01/25 11:20:22;;;;;;;7.07;1.30;;;23.70;46.30;;;;;;5086766;28;20200;-57
2024/01/25 11:22:50;;;;;;;1.35;1.00;;;23.70;46.30;;;;;;5089438;28;20421;-57
2024/01/25 11:25:21;;;;;;;4.15;1.23;;;23.70;46.30;;;;;;5083357;28;20244;-54
2024/01/25 11:27:50;;;;;;;1.73;1.17;;;23.60;46.40;;;;;;5085272;28;20281;-56
2024/01/25 11:30:20;;;;;;;2.67;1.20;;;23.60;46.30;;;;;;5081520;28;20187;-57
2024/01/25 11:32:49;;;;;;;5.82;1.25;;;23.60;46.40;;;;;;5084629;28;20308;-56
2024/01/25 11:35:17;;;;;;;2.50;0.95;;;23.50;46.30;;;;;;5090567;28;20194;-55
2024/01/25 11:37:46;;;;;;;4.22;1.20;;;23.50;46.30;;;;;;5088083;28;20218;-56
2024/01/25 11:40:14;;;;;;;2.08;1.10;;;23.50;46.20;;;;;;5085664;28;20200;-57
2024/01/25 11:42:43;;;;;;;1.52;1.05;;;23.50;46.30;;;;;;5080997;28;20289;-55
2024/01/25 11:45:12;;;;;;;2.55;1.08;;;23.50;46.30;;;;;;5083000;28;20214;-52
2024/01/25 11:47:39;;;;;;;2.10;1.20;;;23.50;46.20;;;;;;5077328;28;20698;-56
2024/01/25 11:50:10;;;;;;;3.40;1.38;;;23.40;46.20;;;;;;5083136;28;20187;-54
2024/01/25 11:52:38;;;;;;;1.67;0.98;;;23.40;46.10;;;;;;5080664;28;20223;-54
2024/01/25 11:55:07;;;;;;;2.97;1.17;;;23.40;46.10;;;;;;5082814;28;20266;-54
2024/01/25 11:57:37;;;;;;;3.92;1.40;;;23.40;46.10;;;;;;5080877;28;20210;-55
2024/01/25 12:00:06;;;;;;;3.10;1.30;;;23.40;46.10;;;;;;5081740;28;20262;-56
2024/01/25 12:02:34;;;;;;;3.35;1.20;;;23.40;46.30;;;;;;5080564;28;20271;-57
2024/01/25 12:05:02;;;;;;;2.30;1.20;;;23.40;46.00;;;;;;5081403;28;20297;-56
2024/01/25 12:07:32;;;;;;;3.20;1.30;;;23.40;46.00;;;;;;5082103;28;20325;-57
2024/01/25 12:10:00;;;;;;;1.52;0.95;;;23.40;46.00;;;;;;5077893;28;20270;-55
2024/01/25 12:12:28;;;;;;;3.63;1.30;;;23.40;46.00;;;;;;5082247;28;20313;-55
2024/01/25 12:14:59;;;;;;;2.47;1.33;;;23.40;45.90;;;;;;5081578;28;20273;-55
2024/01/25 12:17:29;;;;;;;3.60;1.10;;;23.40;45.90;;;;;;5082079;28;20583;-55
2024/01/25 12:19:57;;;;;;;1.75;1.10;;;23.40;45.80;;;;;;5081391;28;20213;-54
2024/01/25 12:22:25;;;;;;;2.78;1.40;;;23.50;45.90;;;;;;5081041;28;20702;-56
2024/01/25 12:24:56;;;;;;;4.90;1.50;;;23.50;45.90;;;;;;5083010;28;20198;-54
2024/01/25 12:27:23;;;;;;;3.55;1.23;;;23.60;45.80;;;;;;5081285;28;20225;-55
2024/01/25 12:29:51;;;;;;;3.08;1.17;;;23.60;45.70;;;;;;5081402;28;20310;-55
2024/01/25 12:32:18;;;;;;;2.42;1.20;;;23.60;45.70;;;;;;5077877;28;20232;-55
2024/01/25 12:34:54;;;;;;;3.92;1.38;;;23.60;45.70;;;;;;5079429;28;20218;-57
2024/01/25 12:37:21;;;;;;;3.70;1.10;;;23.60;45.70;;;;;;5080697;28;20220;-56
2024/01/25 12:39:48;;;;;;;2.95;1.48;;;23.60;45.70;;;;;;5082099;28;20263;-57
2024/01/25 12:42:17;;;;;;;3.75;1.30;;;23.60;45.70;;;;;;5081189;28;20240;-56
2024/01/25 12:44:45;;;;;;;3.55;1.45;;;23.60;45.70;;;;;;5081783;28;20673;-57
2024/01/25 12:47:15;;;;;;;3.45;1.40;;;23.60;45.60;;;;;;5081258;28;20213;-56